sensor_id;sensor_type;location;lat;lon;timestamp;temperature;humidity
28010;DHT22;15334;49.494;8.410;2022-08-18T19:58:54;23.20;99.90
28010;DHT22;15334;49.494;8.410;2022-08-18T20:01:56;22.90;99.90
28010;DHT22;15334;49.494;8.410;2022-08-18T20:04:45;23.00;99.90
28010;DHT22;15334;49.494;8.410;2022-08-18T20:07:41;23.00;99.90
28010;DHT22;15334;49.494;8.410;2022-08-18T20:10:48;23.10;99.90
28010;DHT22;15334;49.494;8.410;2022-08-18T20:13:27;23.20;99.90
28010;DHT22;15334;49.494;8.410;2022-08-18T20:16:13;23.20;99.90
28010;DHT22;15334;49.494;8.410;2022-08-18T20:18:43;23.30;99.90
28010;DHT22;15334;49.494;8.410;2022-08-18T20:27:27;23.30;99.90
28010;DHT22;15334;49.494;8.410;2022-08-18T20:30:29;23.20;99.90
28010;DHT22;15334;49.494;8.410;2022-08-18T20:33:13;23.20;99.90
28010;DHT22;15334;49.494;8.410;2022-08-18T20:35:50;23.20;99.90
28010;DHT22;15334;49.494;8.410;2022-08-18T20:38:28;23.20;99.90
28010;DHT22;15334;49.494;8.410;2022-08-18T20:41:24;23.20;99.90
28010;DHT22;15334;49.494;8.410;2022-08-18T20:44:03;23.20;99.90
28010;DHT22;15334;49.494;8.410;2022-08-18T20:47:02;23.10;99.90
28010;DHT22;15334;49.494;8.410;2022-08-18T20:49:47;23.10;99.90
28010;DHT22;15334;49.494;8.410;2022-08-18T20:52:22;23.00;99.90
28010;DHT22;15334;49.494;8.410;2022-08-18T20:55:11;23.00;99.90
28010;DHT22;15334;49.494;8.410;2022-08-18T20:57:43;23.00;99.90
28010;DHT22;15334;49.494;8.410;2022-08-18T21:00:23;23.00;99.90
28010;DHT22;15334;49.494;8.410;2022-08-18T21:02:56;22.90;99.90
28010;DHT22;15334;49.494;8.410;2022-08-18T21:05:30;23.00;99.90
28010;DHT22;15334;49.494;8.410;2022-08-18T21:08:03;23.00;99.90
28010;DHT22;15334;49.494;8.410;2022-08-18T21:10:33;23.00;99.90
28010;DHT22;15334;49.494;8.410;2022-08-18T21:13:03;22.90;99.90
28010;DHT22;15334;49.494;8.410;2022-08-18T21:15:35;22.80;99.90
28010;DHT22;15334;49.494;8.410;2022-08-18T21:18:06;22.90;99.90
28010;DHT22;15334;49.494;8.410;2022-08-18T21:20:37;22.80;99.90
28010;DHT22;15334;49.494;8.410;2022-08-18T21:23:10;22.70;99.90
28010;DHT22;15334;49.494;8.410;2022-08-18T21:25:46;22.70;99.90
28010;DHT22;15334;49.494;8.410;2022-08-18T21:28:16;22.70;99.90
28010;DHT22;15334;49.494;8.410;2022-08-18T21:30:55;22.70;99.90
28010;DHT22;15334;49.494;8.410;2022-08-18T21:33:48;22.70;99.90
28010;DHT22;15334;49.494;8.410;2022-08-18T21:36:20;22.70;99.90
28010;DHT22;15334;49.494;8.410;2022-08-18T21:38:53;22.70;99.90
28010;DHT22;15334;49.494;8.410;2022-08-18T21:41:32;22.70;99.90
28010;DHT22;15334;49.494;8.410;2022-08-18T21:44:07;22.70;99.90
28010;DHT22;15334;49.494;8.410;2022-08-18T21:46:43;22.70;99.90
28010;DHT22;15334;49.494;8.410;2022-08-18T21:49:22;22.70;99.90
28010;DHT22;15334;49.494;8.410;2022-08-18T21:51:54;22.70;99.90
28010;DHT22;15334;49.494;8.410;2022-08-18T21:54:27;22.70;99.90
28010;DHT22;15334;49.494;8.410;2022-08-18T21:57:18;22.70;99.90
28010;DHT22;15334;49.494;8.410;2022-08-18T22:00:10;22.70;99.90
28010;DHT22;15334;49.494;8.410;2022-08-18T22:02:40;22.60;99.90
28010;DHT22;15334;49.494;8.410;2022-08-18T22:05:09;22.50;99.90
28010;DHT22;15334;49.494;8.410;2022-08-18T22:07:48;22.50;99.90
28010;DHT22;15334;49.494;8.410;2022-08-18T22:10:25;22.40;99.90
28010;DHT22;15334;49.494;8.410;2022-08-18T22:13:21;22.30;99.90
28010;DHT22;15334;49.494;8.410;2022-08-18T22:16:22;22.30;99.90
28010;DHT22;15334;49.494;8.410;2022-08-18T22:19:11;22.20;99.90
28010;DHT22;15334;49.494;8.410;2022-08-18T22:21:54;22.30;99.90
28010;DHT22;15334;49.494;8.410;2022-08-18T22:24:33;22.20;99.90
28010;DHT22;15334;49.494;8.410;2022-08-18T22:27:07;22.20;99.90
28010;DHT22;15334;49.494;8.410;2022-08-18T22:29:47;22.30;99.90
28010;DHT22;15334;49.494;8.410;2022-08-18T22:32:17;22.30;99.90
28010;DHT22;15334;49.494;8.410;2022-08-18T22:34:49;22.30;99.90
28010;DHT22;15334;49.494;8.410;2022-08-18T22:37:20;22.30;99.90
28010;DHT22;15334;49.494;8.410;2022-08-18T22:39:54;22.30;99.90
28010;DHT22;15334;49.494;8.410;2022-08-18T22:42:26;22.30;99.90
28010;DHT22;15334;49.494;8.410;2022-08-18T22:44:55;22.20;99.90
28010;DHT22;15334;49.494;8.410;2022-08-18T22:47:30;22.20;99.90
28010;DHT22;15334;49.494;8.410;2022-08-18T22:50:11;22.20;99.90
28010;DHT22;15334;49.494;8.410;2022-08-18T22:52:44;22.10;99.90
28010;DHT22;15334;49.494;8.410;2022-08-18T22:55:17;22.10;99.90
28010;DHT22;15334;49.494;8.410;2022-08-18T22:57:50;22.10;99.90
28010;DHT22;15334;49.494;8.410;2022-08-18T23:00:26;22.10;99.90
28010;DHT22;15334;49.494;8.410;2022-08-18T23:02:54;22.10;99.90
28010;DHT22;15334;49.494;8.410;2022-08-18T23:05:23;22.00;99.90
28010;DHT22;15334;49.494;8.410;2022-08-18T23:07:51;22.10;99.90
28010;DHT22;15334;49.494;8.410;2022-08-18T23:10:20;22.00;99.90
28010;DHT22;15334;49.494;8.410;2022-08-18T23:12:49;22.10;99.90
28010;DHT22;15334;49.494;8.410;2022-08-18T23:15:18;22.10;99.90
28010;DHT22;15334;49.494;8.410;2022-08-18T23:17:47;22.10;99.90
28010;DHT22;15334;49.494;8.410;2022-08-18T23:20:16;22.10;99.90
28010;DHT22;15334;49.494;8.410;2022-08-18T23:22:45;22.10;99.90
28010;DHT22;15334;49.494;8.410;2022-08-18T23:25:13;22.20;99.90
28010;DHT22;15334;49.494;8.410;2022-08-18T23:27:43;22.20;99.90
28010;DHT22;15334;49.494;8.410;2022-08-18T23:30:11;22.20;99.90
28010;DHT22;15334;49.494;8.410;2022-08-18T23:32:39;22.20;99.90
28010;DHT22;15334;49.494;8.410;2022-08-18T23:35:09;22.20;99.90
28010;DHT22;15334;49.494;8.410;2022-08-18T23:37:37;22.20;99.90
28010;DHT22;15334;49.494;8.410;2022-08-18T23:40:06;22.30;99.90
28010;DHT22;15334;49.494;8.410;2022-08-18T23:42:37;22.30;99.90
28010;DHT22;15334;49.494;8.410;2022-08-18T23:45:07;22.30;99.90
28010;DHT22;15334;49.494;8.410;2022-08-18T23:47:36;22.20;99.90
28010;DHT22;15334;49.494;8.410;2022-08-18T23:50:05;22.20;99.90
28010;DHT22;15334;49.494;8.410;2022-08-18T23:52:33;22.20;99.90
28010;DHT22;15334;49.494;8.410;2022-08-18T23:55:03;22.10;99.90
